Lexington, NC (27292)

6:35 AM EDT on September 02, 2015 (GMT -0400)
Davidson County | | Change Station
CLOSE
Current Station
Airport
Location: Lexington,
Elevation: 732 ft
Nearby Weather Stations

Elev 732 ft 35.78 °N, 80.30 °W | Updated 20 minutes ago

Clear
Clear
66 °F
Feels Like 66 °F
N
0
Wind Variable Wind from North

Today
High -- | Low -- °F
--% Chance of Precip.
Yesterday
High -- | Low -- °F
Precip. -- in
6:53 AM 7:47 PM
Waning Gibbous, 81% visible
Pressure 30.09 in
Visibility 3.0 miles
Clouds Clear
Dew Point 66 °F
Humidity 98%
Rainfall 0.00 in
Snow Depth Not available.
UV 0 out of 12
Pollen 8.70 out of 12
Air Quality Not available.
Flu Activity Not available.
METAR KEXX 021015Z AUTO 00000KT 3SM BR CLR 19/19 A3009 RMK AO2 T01900187
Pressure 30.09 in
Visibility 3.0 miles
Clouds Clear
Dew Point 66 °F
Humidity 98%
Rainfall 0.00 in
Snow Depth Not available.
UV 0 out of 12
Pollen 8.70 out of 12
Air Quality Not available.
Flu Activity Not available.
METAR KEXX 021015Z AUTO 00000KT 3SM BR CLR 19/19 A3009 RMK AO2 T01900187

10-Day Weather Forecast

×

Almanac

Astronomy

Sep. 02, 2015 Rise Set
Actual Time
Civil Twilight
Nautical Twilight
Astronomical Twilight
Moon
Length of Visible Light
Length of Day
Tomorrow will be .
, % of the Moon is Illuminated

Today's Extremes

State Highs State Lows

Community

WunderPhotos

Upload Photos

1,851,734 photos uploaded!

WunderBlogs® & News

Nearby

Air Quality

  Air Quality AQ Index Pollutant
Not available.

Snow Depth

Station Depth Elevation

Earthquake Activity

City Distance Mag. Time & Date
Minimum magnitude displayed is 2.5.

Coastal Water Temperatures

Place Temperature

Stations

Nearby Weather Stations

Station Location Temp. Windchill Dew Point Humidity Wind Precip. Elev Updated Type